SCRQ weather

Rucañanco Airport
Rio Bueno, Los Ríos Region, Chile

Public forecast

Using degrees Celsius for public forecast. Weather courtesy of forecast.io.

METAR (pilot weather report)

Report is more than 6 hours old.

Closest report is Cañal Bajo Carlos - Hott Siebert Airport, 14.2 nm (26.3 km) WSW. Retrieved 2019/02/17 21:00 UTC (9 hours ago):

SCJO 172100Z 34004KT 9999 FEW040 27/15 Q1011

TAF (pilot weather forecast)

Forecast is more than 12 hours old.

Closest forecast is Cañal Bajo Carlos - Hott Siebert Airport, 14.2 nm (26.3 km) WSW. Retrieved 2019/02/17 12:33 UTC (17 hours ago):

TAF SCJO 171016Z 1712/1724 VRB03KT 9999 OVC010 TN09/1712Z TX27/1720Z BECMG 1713/1715 9999 SCT015 BECMG 1716/1718 18008KT CAVOK